GEMLLELL

Guest
Details From GEML - MELILLA
To LELL - Sabadell
Flight Number -
Tags decoded
Created
Modified
Stats Distance 444 nm / 822 km
Max Altitude 0 ft / 0 m
Waypoints 2
Social Downloads 1
Likes 0
Share VATSIM

Download

Looking for another format? Having issues loading an existing format? Contact us
Advertisement - Login to hide

Notes

Requested: GEML LELL

Route

GEML LELL

ID Type Via Altitude Latitude Longitude Leg Dist Tot Dist Heading (true) Name
O GEML APT - 0 ft / 0 m 35.28037˚ -2.95671˚ - 0 nm - MELILLA
O LELL APT - 0 ft / 0 m 41.52098˚ 2.10491˚ 443 nm 443 nm 31° / 34° Sabadell

Altitude Profile

Advertisement - Login to hide

Weather


0- 5 10 15 20 25 30 35+ Temperature / ° C

Clouds and Precipitation
Forecast for 2017-12-14 00:00 UTC. Updated an hour ago

Ground ~20,000 ft ~40,000 ft Winds

GEML

Details ICAO GEML (MLN)
Name MELILLA
Region Ceuta and Melilla
Timezone Africa/Casablanca (UTC+0.0)
Stats Elevation 156 ft / 48 m (AMSL)
Location 35.280374° -2.956708°
Runways 1
Magnetic Variation 0.454° W

METAR

GEML 132030Z AUTO 00000KT 9999 NCD 12/09 Q1027

Decode

TAF

TAF GEML 132000Z 1321/1421 VRB03KT CAVOK TX18/1414Z TN07/1407Z

Decode

Departure Runways

ID Width Length Bearing (true) Bearing (mag) Surface Threshold Offset Overrun Length
15 148 ft / 45 m 4,811 ft / 1,466 m 146.39° 146.84° Asphalt 755 ft / 230 m 0 ft / 0 m
33 148 ft / 45 m 4,811 ft / 1,466 m 326.40° 326.85° Asphalt 0 ft / 0 m 0 ft / 0 m

LELL

Details ICAO LELL (QSA)
Name Sabadell
Region Spain
Timezone Europe/Madrid (UTC+1.0)
Stats Elevation 465 ft / 142 m (AMSL)
Location 41.520977° 2.104912°
Runways 1
Magnetic Variation 0.820° E

METAR

LELL 132030Z AUTO 24004KT 210V280 9999 NCD 09/01 Q1020

Decode

TAF

TAF LELL 131400Z 1315/1415 27008KT 9999 SCT040 TX15/1409Z TN05/1406Z PROB30 TEMPO 1315/1318 27008G18KT PROB30 TEMPO 1412/1415 27008G18KT

Decode

Destination Runways

ID Width Length Bearing (true) Bearing (mag) Surface Threshold Offset Overrun Length
13 98 ft / 30 m 2,956 ft / 901 m 127.50° 126.68° Asphalt 0 ft / 0 m 0 ft / 0 m
31 98 ft / 30 m 2,956 ft / 901 m 307.50° 306.68° Asphalt 0 ft / 0 m 0 ft / 0 m